Agadir Al Massira, Morocco
Current Conditions -  °F | °C
As of 1:30 AM on Sunday 21 Dec 2014 (Local Time) from GMAD Reporting Station
Clear Clear  
Wind Chill: 52°   Ceiling: Unl
Heat Index: 52°   Visibility: 6mi
Dew Point: 48°   Wind: 7mph
Humidity: 88%   Direction: 60°ENE
Pressure: 30.33"   Gusts: NA
Location:  30.33°N, 9.4°W
Report Text: GMAD 210030Z 06006KT CAVOK 11/09 Q1027 NOSIG
Loading
Personal Weather Stations






























Interactive Weather Map New forecast layout! Learn more

10-Day Weather Forecast

Advertisements
Track Severe Weather on mobile